Time;durP1;ratioP1;P1;durP2;ratioP2;P2;SDS_P1;SDS_P2;PMS_P1;PMS_P2;Temp;Humidity;BMP_temperature;BMP_pressure;BME280_temperature;BME280_humidity;BME280_pressure;Samples;Min_cycle;Max_cycle;Signal;HPM_P1;HPM_P2
2022/02/22 00:00:52;;;;;;;17.97;3.67;;;8.30;99.90;;;;;;5072985;28;20167;-90
2022/02/22 00:03:18;;;;;;;13.27;2.90;;;8.20;99.90;;;;;;5076804;28;20196;-90
2022/02/22 00:05:44;;;;;;;17.80;3.73;;;8.20;99.90;;;;;;5091492;28;20261;-90
2022/02/22 00:08:09;;;;;;;19.33;3.00;;;8.20;99.90;;;;;;5092544;28;20162;-90
2022/02/22 00:10:35;;;;;;;18.47;3.93;;;8.30;99.90;;;;;;5092791;28;20602;-90
2022/02/22 00:13:01;;;;;;;20.57;3.50;;;8.20;99.90;;;;;;5092864;28;20610;-90
2022/02/22 00:15:27;;;;;;;12.10;3.23;;;8.10;99.90;;;;;;5093046;28;20180;-88
2022/02/22 00:17:54;;;;;;;12.23;3.60;;;8.10;99.90;;;;;;5082456;28;20169;-89
2022/02/22 00:20:20;;;;;;;15.50;3.67;;;8.20;99.90;;;;;;5073984;28;20193;-89
2022/02/22 00:22:45;;;;;;;18.47;4.13;;;8.20;99.90;;;;;;5072929;28;20222;-88
2022/02/22 00:25:12;;;;;;;14.10;3.53;;;8.20;99.90;;;;;;5073184;28;20205;-89
2022/02/22 00:27:43;;;;;;;14.03;3.73;;;8.10;99.90;;;;;;5073370;28;20169;-89
2022/02/22 00:30:11;;;;;;;11.20;3.00;;;7.90;99.90;;;;;;5073601;28;20173;-89
2022/02/22 00:32:39;;;;;;;15.33;3.47;;;7.90;99.90;;;;;;5073424;28;20172;-90
2022/02/22 00:35:24;;;;;;;12.37;3.73;;;7.80;99.90;;;;;;5076682;28;20681;-89
2022/02/22 00:37:50;;;;;;;12.17;2.97;;;7.90;99.90;;;;;;5095160;28;20190;-89
2022/02/22 00:40:16;;;;;;;12.07;3.47;;;8.00;99.90;;;;;;5092778;28;20301;-89
2022/02/22 00:42:43;;;;;;;17.33;3.03;;;7.90;99.90;;;;;;5083579;28;21184;-89
2022/02/22 00:45:10;;;;;;;17.00;3.30;;;7.90;99.90;;;;;;5089424;28;20245;-90
2022/02/22 00:47:36;;;;;;;11.77;3.10;;;7.80;99.90;;;;;;5092819;28;20167;-89
2022/02/22 00:50:03;;;;;;;14.67;3.30;;;7.80;99.90;;;;;;5091610;28;20183;-89
2022/02/22 00:52:29;;;;;;;18.83;3.97;;;7.90;99.90;;;;;;5095913;28;20233;-89
2022/02/22 00:54:58;;;;;;;17.10;3.50;;;7.90;99.90;;;;;;5094467;28;20182;-89
2022/02/22 00:57:28;;;;;;;10.50;2.90;;;7.80;99.90;;;;;;5077285;28;20376;-89
2022/02/22 00:59:54;;;;;;;13.50;2.80;;;7.80;99.90;;;;;;5082498;28;20254;-88
2022/02/22 01:02:22;;;;;;;23.93;3.30;;;7.80;99.90;;;;;;5081624;28;20216;-87
2022/02/22 01:04:49;;;;;;;19.93;3.60;;;7.80;99.90;;;;;;5085422;28;20211;-88
2022/02/22 01:07:17;;;;;;;14.87;2.83;;;7.70;99.90;;;;;;5082733;28;20179;-88
2022/02/22 01:09:49;;;;;;;18.40;3.27;;;7.70;99.90;;;;;;5075725;28;20196;-87
2022/02/22 01:12:18;;;;;;;22.33;3.90;;;7.70;99.90;;;;;;5076835;28;20543;-88
2022/02/22 01:14:45;;;;;;;16.67;3.20;;;7.60;99.90;;;;;;5075678;28;20211;-87
2022/02/22 01:17:13;;;;;;;14.20;2.70;;;7.60;99.90;;;;;;5075376;28;20175;-87
2022/02/22 01:19:39;;;;;;;18.93;4.70;;;7.60;99.90;;;;;;5075273;28;20171;-88
2022/02/22 01:22:06;;;;;;;13.60;3.07;;;7.50;99.90;;;;;;5075200;28;20177;-86
2022/02/22 01:24:34;;;;;;;21.73;2.80;;;7.50;99.90;;;;;;5075518;28;20213;-86
2022/02/22 01:27:04;;;;;;;15.67;3.33;;;7.60;99.90;;;;;;5075928;28;20216;-86
2022/02/22 01:29:31;;;;;;;19.57;3.23;;;7.60;99.90;;;;;;5075576;28;20202;-90
2022/02/22 01:32:00;;;;;;;23.40;3.70;;;7.60;99.90;;;;;;5075532;28;20167;-89
2022/02/22 01:34:27;;;;;;;20.77;3.30;;;7.50;99.90;;;;;;5076428;28;20170;-86
2022/02/22 01:36:53;;;;;;;23.20;3.50;;;7.70;99.90;;;;;;5075153;28;20222;-88
2022/02/22 01:39:19;;;;;;;20.87;3.77;;;7.70;99.90;;;;;;5075460;28;20521;-88
2022/02/22 01:41:45;;;;;;;15.80;4.57;;;7.70;99.90;;;;;;5075298;28;20307;-86
2022/02/22 01:44:14;;;;;;;18.77;3.47;;;7.60;99.90;;;;;;5075306;28;20253;-86
2022/02/22 01:46:40;;;;;;;18.10;3.63;;;7.60;99.90;;;;;;5075308;28;20201;-89
2022/02/22 01:49:12;;;;;;;19.23;3.53;;;7.70;99.90;;;;;;5076426;28;20168;-89
2022/02/22 01:51:40;;;;;;;22.33;3.00;;;7.70;99.90;;;;;;5074752;28;20167;-88
2022/02/22 01:54:12;;;;;;;17.30;3.47;;;7.70;99.90;;;;;;5076317;28;20590;-86
2022/02/22 01:56:40;;;;;;;25.80;4.00;;;7.70;99.90;;;;;;5074853;28;20184;-88
2022/02/22 01:59:06;;;;;;;25.57;4.10;;;7.70;99.90;;;;;;5074978;28;20249;-88
2022/02/22 02:01:33;;;;;;;13.60;3.43;;;7.70;99.90;;;;;;5074793;28;20192;-88
2022/02/22 02:04:05;;;;;;;15.40;2.90;;;7.70;99.90;;;;;;5074543;28;20210;-88
2022/02/22 02:06:35;;;;;;;16.47;3.20;;;7.60;99.90;;;;;;5074730;28;20541;-88
2022/02/22 02:09:01;;;;;;;16.93;4.03;;;7.50;99.90;;;;;;5074889;28;20192;-88
2022/02/22 02:11:27;;;;;;;17.67;2.90;;;7.40;99.90;;;;;;5074725;28;20548;-86
2022/02/22 02:13:56;;;;;;;25.67;3.57;;;7.40;99.90;;;;;;5074669;28;20259;-88
2022/02/22 02:16:23;;;;;;;18.23;3.43;;;7.50;99.90;;;;;;5074544;28;20278;-88
2022/02/22 02:18:54;;;;;;;13.73;3.17;;;7.40;99.90;;;;;;5074575;28;20163;-86
2022/02/22 02:21:21;;;;;;;11.97;2.97;;;7.40;99.90;;;;;;5074372;28;20170;-89
2022/02/22 02:23:48;;;;;;;38.00;4.13;;;7.30;99.90;;;;;;5075339;28;20695;-86
2022/02/22 02:26:16;;;;;;;23.90;3.80;;;7.30;99.90;;;;;;5074830;28;20537;-86
2022/02/22 02:28:41;;;;;;;22.10;4.07;;;7.40;99.90;;;;;;5077196;28;20171;-86
2022/02/22 02:31:10;;;;;;;24.10;4.30;;;7.50;99.90;;;;;;5074544;28;20175;-86
2022/02/22 02:33:39;;;;;;;18.40;3.07;;;7.40;99.90;;;;;;5074100;28;20631;-86
2022/02/22 02:36:07;;;;;;;13.43;3.13;;;7.40;99.90;;;;;;5073963;28;20160;-87
2022/02/22 02:38:34;;;;;;;17.17;3.03;;;7.40;99.90;;;;;;5074374;28;20612;-87
2022/02/22 02:41:05;;;;;;;14.90;3.03;;;7.30;99.90;;;;;;5074491;28;20627;-86
2022/02/22 02:43:31;;;;;;;15.37;3.57;;;7.40;99.90;;;;;;5074022;28;20191;-86
2022/02/22 02:45:59;;;;;;;14.67;3.17;;;7.40;99.90;;;;;;5073998;28;20184;-86
2022/02/22 02:48:25;;;;;;;18.27;2.90;;;7.40;99.90;;;;;;5075238;28;20160;-87
2022/02/22 02:50:57;;;;;;;21.97;3.27;;;7.40;99.90;;;;;;5074702;28;20174;-87
2022/02/22 02:53:23;;;;;;;11.67;3.33;;;7.40;99.90;;;;;;5074073;28;20175;-87
2022/02/22 02:55:49;;;;;;;21.60;4.03;;;7.50;99.90;;;;;;5073526;28;20171;-87
2022/02/22 02:58:18;;;;;;;24.13;3.33;;;7.50;99.90;;;;;;5073580;28;20198;-86
2022/02/22 03:00:43;;;;;;;17.53;3.63;;;7.50;99.90;;;;;;5073670;28;20157;-87
2022/02/22 03:03:12;;;;;;;18.80;3.40;;;7.50;99.90;;;;;;5073893;28;20291;-87
2022/02/22 03:05:41;;;;;;;18.87;3.73;;;7.40;99.90;;;;;;5073191;28;20213;-87
2022/02/22 03:08:08;;;;;;;13.63;3.40;;;7.40;99.90;;;;;;5073410;28;20228;-87
2022/02/22 03:10:35;;;;;;;18.07;3.37;;;7.40;99.90;;;;;;5073383;28;20671;-87
2022/02/22 03:13:03;;;;;;;18.13;3.57;;;7.50;99.90;;;;;;5073137;28;20259;-87
2022/02/22 03:15:31;;;;;;;11.70;3.07;;;7.40;99.90;;;;;;5073520;28;20317;-87
2022/02/22 03:17:58;;;;;;;15.97;3.17;;;7.40;99.90;;;;;;5073322;28;20168;-87
2022/02/22 03:20:27;;;;;;;13.43;3.60;;;7.40;99.90;;;;;;5073242;28;20171;-87
2022/02/22 03:22:54;;;;;;;13.67;3.07;;;7.40;99.90;;;;;;5073487;28;20181;-87
2022/02/22 03:25:21;;;;;;;12.83;3.30;;;7.30;99.90;;;;;;5073136;28;20672;-89
2022/02/22 03:27:49;;;;;;;12.53;3.30;;;7.40;99.90;;;;;;5073233;28;20196;-86
2022/02/22 03:30:19;;;;;;;16.03;3.23;;;7.50;99.90;;;;;;5073277;28;20895;-87
2022/02/22 03:32:52;;;;;;;17.20;3.20;;;7.40;99.90;;;;;;5073023;28;20164;-87
2022/02/22 03:35:17;;;;;;;14.37;2.60;;;7.50;99.90;;;;;;5074161;28;20202;-86
2022/02/22 03:37:45;;;;;;;11.40;2.50;;;7.40;99.90;;;;;;5073200;28;20171;-89
2022/02/22 03:40:13;;;;;;;16.53;4.00;;;7.40;99.90;;;;;;5073017;28;20171;-86
2022/02/22 03:42:43;;;;;;;15.33;2.80;;;7.30;99.90;;;;;;5072974;28;20235;-89
2022/02/22 03:45:15;;;;;;;10.30;2.60;;;7.30;99.90;;;;;;5072868;28;20208;-88
2022/02/22 03:47:43;;;;;;;16.37;3.50;;;7.30;99.90;;;;;;5072571;28;20814;-86
2022/02/22 03:50:11;;;;;;;18.47;3.20;;;7.40;99.90;;;;;;5073155;28;20160;-86
2022/02/22 03:52:40;;;;;;;14.83;3.10;;;7.40;99.90;;;;;;5072893;28;20203;-88
2022/02/22 03:55:07;;;;;;;14.13;2.90;;;7.30;99.90;;;;;;5072943;28;20171;-89
2022/02/22 03:57:37;;;;;;;12.57;2.80;;;7.30;99.90;;;;;;5073415;28;20172;-88
2022/02/22 04:00:16;;;;;;;11.90;2.87;;;7.30;99.90;;;;;;5074078;28;20210;-89
2022/02/22 04:02:45;;;;;;;19.80;2.93;;;7.40;99.90;;;;;;5075851;28;20214;-89
2022/02/22 04:05:11;;;;;;;13.23;2.67;;;7.40;99.90;;;;;;5078647;28;20254;-89
2022/02/22 04:07:37;;;;;;;13.60;2.83;;;7.30;99.90;;;;;;5075667;28;20228;-87
2022/02/22 04:10:06;;;;;;;18.97;3.50;;;7.30;99.90;;;;;;5074619;28;20192;-88
2022/02/22 04:12:32;;;;;;;14.53;3.23;;;7.30;99.90;;;;;;5073543;28;20244;-88
2022/02/22 04:15:00;;;;;;;15.97;2.93;;;7.30;99.90;;;;;;5072840;28;20543;-87
2022/02/22 04:17:27;;;;;;;8.60;2.30;;;7.40;99.90;;;;;;5072558;28;20175;-87
2022/02/22 04:19:59;;;;;;;14.80;3.37;;;7.40;99.90;;;;;;5072778;28;20169;-88
2022/02/22 04:22:28;;;;;;;11.33;2.97;;;7.30;99.90;;;;;;5072667;28;20164;-88
2022/02/22 04:24:54;;;;;;;11.73;2.73;;;7.20;99.90;;;;;;5072940;28;20234;-88
2022/02/22 04:27:21;;;;;;;11.70;2.90;;;7.20;99.90;;;;;;5076678;28;20646;-86
2022/02/22 04:29:46;;;;;;;17.30;3.10;;;7.30;99.90;;;;;;5076677;28;20183;-87
2022/02/22 04:32:15;;;;;;;10.43;2.33;;;7.30;99.90;;;;;;5076507;28;20179;-87
2022/02/22 04:34:43;;;;;;;15.87;3.27;;;7.20;99.90;;;;;;5076498;28;20172;-87
2022/02/22 04:37:15;;;;;;;17.40;3.33;;;7.20;99.90;;;;;;5076440;28;20270;-88
2022/02/22 04:39:45;;;;;;;15.70;3.23;;;7.00;99.90;;;;;;5076404;28;20761;-88
2022/02/22 04:42:14;;;;;;;12.67;2.83;;;7.00;99.90;;;;;;5076246;28;20665;-88
2022/02/22 04:44:46;;;;;;;15.57;3.77;;;7.00;99.90;;;;;;5076215;28;20198;-88
2022/02/22 04:47:13;;;;;;;14.23;3.10;;;6.90;99.90;;;;;;5077475;28;20255;-88
2022/02/22 04:49:40;;;;;;;17.13;3.30;;;6.90;99.90;;;;;;5076043;28;20204;-88
2022/02/22 04:52:06;;;;;;;14.70;2.83;;;7.00;99.90;;;;;;5076203;28;20175;-88
2022/02/22 04:54:33;;;;;;;11.63;3.20;;;7.00;99.90;;;;;;5084241;28;20262;-88
2022/02/22 04:57:02;;;;;;;14.00;3.03;;;6.90;99.90;;;;;;5076008;28;20188;-88
2022/02/22 04:59:30;;;;;;;12.20;3.27;;;7.00;99.90;;;;;;5095331;28;20627;-88
2022/02/22 05:01:57;;;;;;;14.17;3.50;;;7.00;99.90;;;;;;5096452;28;20166;-87
2022/02/22 05:04:23;;;;;;;17.40;3.70;;;6.90;99.90;;;;;;5096023;28;20217;-88
2022/02/22 05:06:49;;;;;;;15.87;3.73;;;6.90;99.90;;;;;;5097121;28;20175;-88
2022/02/22 05:09:18;;;;;;;14.60;3.20;;;7.00;99.90;;;;;;5084760;28;20192;-88
2022/02/22 05:11:44;;;;;;;15.43;3.70;;;7.00;99.90;;;;;;5087068;28;20182;-88
2022/02/22 05:14:12;;;;;;;20.57;5.07;;;6.90;99.90;;;;;;5075668;28;20250;-88
2022/02/22 05:16:39;;;;;;;16.30;3.60;;;6.90;99.90;;;;;;5075603;28;20186;-87
2022/02/22 05:19:05;;;;;;;21.53;4.30;;;6.90;99.90;;;;;;5075655;28;20235;-87
2022/02/22 05:21:34;;;;;;;17.20;4.40;;;6.80;99.90;;;;;;5075521;28;20194;-87
2022/02/22 05:24:02;;;;;;;13.70;3.67;;;6.80;99.90;;;;;;5075392;28;20191;-88
2022/02/22 05:26:28;;;;;;;14.33;4.00;;;6.60;99.90;;;;;;5075607;28;20160;-87
2022/02/22 05:28:55;;;;;;;21.37;4.93;;;6.70;99.90;;;;;;5075508;28;20187;-88
2022/02/22 05:31:24;;;;;;;21.47;4.53;;;6.60;99.90;;;;;;5075522;28;20167;-88
2022/02/22 05:33:50;;;;;;;23.43;5.13;;;6.70;99.90;;;;;;5075533;28;20168;-86
2022/02/22 05:36:20;;;;;;;24.93;4.87;;;6.80;99.90;;;;;;5074994;28;20164;-88
2022/02/22 05:38:48;;;;;;;23.27;5.90;;;6.80;99.90;;;;;;5075266;28;20220;-88
2022/02/22 05:41:17;;;;;;;21.80;4.80;;;6.70;99.90;;;;;;5075323;28;20642;-88
2022/02/22 05:43:50;;;;;;;25.47;5.30;;;6.70;99.90;;;;;;5074828;28;20477;-87
2022/02/22 05:46:18;;;;;;;21.17;5.17;;;6.70;99.90;;;;;;5075254;28;20571;-88
2022/02/22 05:48:46;;;;;;;23.83;5.73;;;6.70;99.90;;;;;;5075026;28;20163;-87
2022/02/22 05:51:13;;;;;;;24.97;5.43;;;6.60;99.90;;;;;;5075184;28;20197;-87
2022/02/22 05:53:42;;;;;;;22.20;5.60;;;6.60;99.90;;;;;;5074946;28;20168;-87
2022/02/22 05:56:11;;;;;;;31.43;5.60;;;6.70;99.90;;;;;;5074561;28;20168;-88
2022/02/22 05:58:36;;;;;;;29.33;5.93;;;6.70;99.90;;;;;;5074592;28;20236;-87
2022/02/22 06:01:02;;;;;;;22.07;5.43;;;6.60;99.90;;;;;;5074825;28;20171;-88
2022/02/22 06:03:31;;;;;;;24.03;6.03;;;6.60;99.90;;;;;;5075860;28;20225;-88
2022/02/22 06:05:57;;;;;;;27.73;6.23;;;6.60;99.90;;;;;;5074595;28;20192;-87
2022/02/22 06:08:25;;;;;;;24.63;5.87;;;6.50;99.90;;;;;;5074693;28;20202;-87
2022/02/22 06:10:53;;;;;;;35.37;5.80;;;6.40;99.90;;;;;;5074790;28;20262;-87
2022/02/22 06:13:20;;;;;;;29.83;5.83;;;6.30;99.90;;;;;;5074172;28;20407;-87
2022/02/22 06:15:46;;;;;;;20.83;5.17;;;6.20;99.90;;;;;;5074249;28;20580;-87
2022/02/22 06:18:16;;;;;;;26.13;5.60;;;6.20;99.90;;;;;;5074340;28;20245;-87
2022/02/22 06:20:42;;;;;;;29.10;5.57;;;6.20;99.90;;;;;;5075008;28;20151;-87
2022/02/22 06:23:12;;;;;;;29.23;5.57;;;6.20;99.90;;;;;;5073789;28;20249;-87
2022/02/22 06:25:38;;;;;;;33.20;5.47;;;6.40;99.90;;;;;;5075012;28;20179;-87
2022/02/22 06:28:07;;;;;;;28.47;5.90;;;6.40;99.90;;;;;;5073983;28;20176;-87
2022/02/22 06:30:34;;;;;;;21.33;4.97;;;6.40;99.90;;;;;;5074156;28;20233;-86
2022/02/22 06:33:01;;;;;;;27.43;5.97;;;6.50;99.90;;;;;;5073451;28;20630;-87
2022/02/22 06:35:27;;;;;;;18.63;5.63;;;6.50;99.90;;;;;;5073927;28;20163;-87
2022/02/22 06:37:54;;;;;;;33.83;5.83;;;6.70;99.90;;;;;;5074864;28;20240;-87
2022/02/22 06:40:21;;;;;;;28.53;6.50;;;6.70;99.90;;;;;;5074067;28;20619;-87
2022/02/22 06:42:47;;;;;;;34.93;5.63;;;6.80;99.90;;;;;;5073485;28;20168;-87
2022/02/22 06:45:13;;;;;;;24.70;5.63;;;6.70;99.90;;;;;;5073856;28;20289;-87
2022/02/22 06:47:40;;;;;;;26.13;5.80;;;6.70;99.90;;;;;;5073060;28;20206;-88
2022/02/22 06:50:09;;;;;;;30.63;6.40;;;6.60;99.90;;;;;;5073856;28;20171;-86
2022/02/22 06:52:37;;;;;;;30.07;5.47;;;6.60;99.90;;;;;;5073739;28;20160;-88
2022/02/22 06:55:05;;;;;;;25.37;5.57;;;6.60;99.90;;;;;;5073764;28;20176;-86
2022/02/22 06:57:31;;;;;;;33.63;5.57;;;6.70;99.90;;;;;;5073797;28;20224;-85
2022/02/22 06:59:58;;;;;;;36.13;7.70;;;6.70;99.90;;;;;;5074664;28;20885;-86
2022/02/22 07:02:25;;;;;;;24.50;5.53;;;6.70;99.90;;;;;;5073061;28;20228;-86
2022/02/22 07:04:51;;;;;;;24.80;5.70;;;6.70;99.90;;;;;;5073366;28;20198;-87
2022/02/22 07:07:18;;;;;;;30.67;5.70;;;6.70;99.90;;;;;;5073483;28;20195;-88
2022/02/22 07:09:47;;;;;;;26.87;5.37;;;6.80;99.90;;;;;;5073539;28;20203;-88
2022/02/22 07:12:14;;;;;;;32.87;7.00;;;6.90;99.90;;;;;;5073483;28;20247;-89
2022/02/22 07:14:41;;;;;;;25.93;5.50;;;6.90;99.90;;;;;;5073322;28;20164;-89
2022/02/22 07:17:10;;;;;;;26.40;5.13;;;6.90;99.90;;;;;;5073362;28;20215;-89
2022/02/22 07:19:38;;;;;;;25.70;5.67;;;7.00;99.90;;;;;;5073814;28;20206;-88
2022/02/22 07:22:04;;;;;;;25.30;6.47;;;7.00;99.90;;;;;;5073388;28;20647;-86
2022/02/22 07:24:31;;;;;;;25.53;5.93;;;6.90;99.90;;;;;;5074057;28;20195;-88
2022/02/22 07:26:57;;;;;;;29.27;6.13;;;6.90;99.90;;;;;;5073125;28;20198;-87
2022/02/22 07:29:22;;;;;;;25.20;5.07;;;7.00;99.90;;;;;;5073545;28;20704;-87
2022/02/22 07:31:48;;;;;;;20.43;4.70;;;7.00;99.90;;;;;;5073132;28;20200;-88
2022/02/22 07:34:17;;;;;;;22.60;5.10;;;7.00;99.90;;;;;;5073038;28;20270;-88
2022/02/22 07:36:44;;;;;;;26.07;5.10;;;7.10;99.90;;;;;;5073007;28;20182;-88
2022/02/22 07:39:10;;;;;;;23.03;5.27;;;7.20;99.90;;;;;;5072533;28;20207;-86
2022/02/22 07:41:39;;;;;;;25.27;5.63;;;7.30;99.90;;;;;;5072959;28;20160;-88
2022/02/22 07:44:07;;;;;;;24.93;5.70;;;7.50;99.90;;;;;;5073759;28;20239;-88
2022/02/22 07:46:33;;;;;;;23.07;5.37;;;7.50;99.90;;;;;;5073927;28;20179;-88
2022/02/22 07:49:02;;;;;;;26.67;4.87;;;7.60;99.90;;;;;;5073047;28;20173;-88
2022/02/22 07:51:31;;;;;;;25.80;5.07;;;7.50;99.90;;;;;;5072910;28;20165;-85
2022/02/22 07:53:58;;;;;;;23.03;5.00;;;7.40;99.90;;;;;;5072768;28;20500;-87
2022/02/22 07:56:24;;;;;;;26.77;5.73;;;7.50;99.90;;;;;;5074042;28;20176;-87
2022/02/22 07:58:59;;;;;;;26.27;4.63;;;7.60;99.90;;;;;;5080529;28;20181;-96
2022/02/22 08:01:25;;;;;;;30.67;5.57;;;7.60;99.90;;;;;;5074392;28;20230;-85
2022/02/22 08:03:53;;;;;;;33.20;6.17;;;7.60;99.90;;;;;;5092688;28;20294;-88
2022/02/22 08:06:20;;;;;;;24.67;5.13;;;7.70;99.90;;;;;;5092842;28;20330;-85
2022/02/22 08:08:49;;;;;;;23.27;4.80;;;7.80;99.90;;;;;;5092683;28;20221;-87
2022/02/22 08:11:15;;;;;;;33.23;5.57;;;7.80;99.90;;;;;;5092905;28;20623;-86
2022/02/22 08:13:42;;;;;;;29.50;5.07;;;7.80;99.90;;;;;;5092806;28;20179;-85
2022/02/22 08:16:08;;;;;;;29.33;4.87;;;7.70;99.90;;;;;;5092692;28;20254;-88
2022/02/22 08:18:35;;;;;;;31.47;5.43;;;7.70;99.90;;;;;;5092775;28;20258;-85
2022/02/22 08:21:03;;;;;;;23.77;4.80;;;7.70;99.90;;;;;;5092812;28;20265;-85
2022/02/22 08:23:31;;;;;;;27.57;5.80;;;7.70;99.90;;;;;;5092340;28;20204;-85
2022/02/22 08:26:04;;;;;;;26.50;4.87;;;7.90;99.90;;;;;;5092887;28;20261;-87
2022/02/22 08:28:30;;;;;;;28.23;5.10;;;7.80;99.90;;;;;;5092864;28;20167;-85
2022/02/22 08:30:56;;;;;;;31.63;4.60;;;7.70;99.90;;;;;;5089528;28;20179;-85
2022/02/22 08:33:24;;;;;;;29.07;6.30;;;7.70;99.90;;;;;;5089271;28;20620;-86
2022/02/22 08:35:53;;;;;;;36.67;6.07;;;7.60;99.90;;;;;;5072258;28;20168;-87
2022/02/22 08:38:18;;;;;;;31.70;6.10;;;7.60;99.90;;;;;;5072406;28;20202;-88
2022/02/22 08:40:45;;;;;;;37.60;5.70;;;7.60;99.90;;;;;;5072441;28;20205;-87
2022/02/22 08:43:13;;;;;;;29.03;5.97;;;7.70;99.90;;;;;;5072292;28;20173;-88
2022/02/22 08:45:41;;;;;;;27.23;5.77;;;7.80;99.90;;;;;;5083291;28;20180;-88
2022/02/22 08:48:14;;;;;;;28.70;5.27;;;7.80;99.90;;;;;;5074749;28;20215;-88
2022/02/22 08:50:41;;;;;;;41.67;7.37;;;7.80;99.90;;;;;;5090772;28;20183;-88
2022/02/22 08:53:09;;;;;;;39.27;6.83;;;7.80;99.90;;;;;;5093399;28;20553;-88
2022/02/22 08:55:40;;;;;;;41.13;7.23;;;7.80;99.90;;;;;;5092306;28;20211;-88
2022/02/22 08:58:06;;;;;;;30.43;6.50;;;8.10;99.90;;;;;;5080527;28;20854;-92
2022/02/22 09:00:32;;;;;;;42.07;7.57;;;8.20;99.90;;;;;;5081946;28;20260;-91
2022/02/22 09:02:58;;;;;;;32.00;6.03;;;8.40;99.90;;;;;;5079860;28;20181;-90
2022/02/22 09:05:28;;;;;;;33.93;6.57;;;8.60;99.90;;;;;;5072275;28;20336;-90
2022/02/22 09:07:54;;;;;;;34.87;6.17;;;8.90;99.90;;;;;;5072939;28;20191;-90
2022/02/22 09:10:21;;;;;;;37.57;6.30;;;9.00;99.90;;;;;;5071991;28;20203;-90
2022/02/22 09:12:48;;;;;;;35.73;6.47;;;9.10;99.90;;;;;;5075202;28;20192;-90
2022/02/22 09:15:21;;;;;;;40.70;7.33;;;9.10;99.90;;;;;;5084229;28;20178;-88
2022/02/22 09:17:47;;;;;;;38.43;7.27;;;9.00;99.90;;;;;;5096025;28;20234;-90
2022/02/22 09:20:16;;;;;;;39.47;7.37;;;8.90;99.90;;;;;;5095744;28;20627;-88
2022/02/22 09:22:51;;;;;;;31.50;7.00;;;8.90;99.90;;;;;;5096802;28;20178;-90
2022/02/22 09:25:18;;;;;;;40.60;7.43;;;9.10;99.90;;;;;;5096123;28;20208;-91
2022/02/22 09:27:44;;;;;;;30.73;7.17;;;9.10;99.90;;;;;;5085423;28;20272;-90
2022/02/22 09:30:14;;;;;;;33.57;6.27;;;9.10;99.90;;;;;;5086584;28;20188;-96
2022/02/22 09:32:44;;;;;;;38.47;7.03;;;9.10;99.90;;;;;;5093668;28;20414;-96
2022/02/22 09:35:12;;;;;;;47.97;8.57;;;9.20;99.90;;;;;;5093758;28;20571;-96
2022/02/22 09:37:38;;;;;;;36.37;6.90;;;9.30;99.90;;;;;;5075047;28;20167;-95
2022/02/22 09:40:04;;;;;;;34.13;5.97;;;9.30;99.90;;;;;;5075763;28;20324;-95
2022/02/22 09:42:30;;;;;;;42.47;7.07;;;9.30;99.90;;;;;;5095628;28;20622;-96
2022/02/22 09:44:56;;;;;;;41.40;7.33;;;9.40;99.90;;;;;;5091156;28;20222;-94
2022/02/22 09:47:22;;;;;;;40.50;7.20;;;9.40;99.90;;;;;;5075115;28;20197;-94
2022/02/22 09:49:48;;;;;;;44.20;6.27;;;9.40;99.90;;;;;;5075023;28;20189;-96
2022/02/22 09:52:14;;;;;;;45.17;7.93;;;9.50;99.90;;;;;;5074922;28;20162;-96
2022/02/22 09:54:39;;;;;;;40.43;8.03;;;9.50;99.90;;;;;;5080758;28;20270;-95
2022/02/22 09:57:05;;;;;;;35.70;6.90;;;9.50;99.90;;;;;;5095010;28;20174;-94
2022/02/22 09:59:31;;;;;;;37.23;7.20;;;9.60;99.90;;;;;;5078666;28;20170;-95
2022/02/22 10:01:57;;;;;;;40.40;7.83;;;9.70;99.90;;;;;;5087318;28;20177;-96
2022/02/22 10:04:24;;;;;;;42.97;7.67;;;9.70;99.90;;;;;;5081759;28;20201;-95
2022/02/22 10:06:50;;;;;;;32.17;7.43;;;9.80;99.90;;;;;;5093232;28;20216;-92
2022/02/22 10:09:17;;;;;;;53.47;8.80;;;9.90;99.90;;;;;;5095347;28;20685;-96
2022/02/22 10:11:51;;;;;;;36.97;7.03;;;9.80;99.90;;;;;;5092837;28;20189;-96
2022/02/22 10:14:28;;;;;;;47.90;8.30;;;9.70;99.90;;;;;;5081884;28;20246;-96
2022/02/22 10:16:55;;;;;;;46.20;8.13;;;9.50;99.90;;;;;;5082740;28;20188;-94
2022/02/22 10:19:24;;;;;;;40.83;9.23;;;9.40;99.90;;;;;;5092943;28;20645;-96
2022/02/22 10:21:54;;;;;;;50.77;9.30;;;9.40;99.90;;;;;;5097013;28;20638;-94
2022/02/22 10:24:21;;;;;;;52.60;8.53;;;9.50;99.90;;;;;;5101373;28;20196;-95
2022/02/22 10:27:00;;;;;;;42.57;6.97;;;9.60;99.90;;;;;;5098224;28;20174;-90
2022/02/22 10:29:29;;;;;;;40.67;7.50;;;9.70;99.90;;;;;;5100521;28;20175;-96
2022/02/22 10:31:55;;;;;;;47.57;8.63;;;9.50;99.90;;;;;;5083328;28;20167;-96
2022/02/22 10:34:31;;;;;;;43.07;8.10;;;9.60;99.90;;;;;;5086259;28;20228;-96
2022/02/22 10:36:57;;;;;;;33.40;7.30;;;9.50;99.90;;;;;;5086845;28;20246;-96
2022/02/22 10:39:22;;;;;;;42.77;8.23;;;9.30;99.90;;;;;;5089934;28;20791;-94
2022/02/22 10:41:52;;;;;;;42.33;8.67;;;9.30;99.90;;;;;;5088779;28;20207;-92
2022/02/22 10:44:35;;;;;;;37.73;7.33;;;9.30;99.90;;;;;;5080863;28;20222;-96
2022/02/22 10:47:26;;;;;;;40.97;7.80;;;9.40;99.90;;;;;;5093937;28;20147;-94
2022/02/22 10:49:52;;;;;;;41.53;7.27;;;9.40;99.90;;;;;;5092119;28;20533;-96
2022/02/22 10:52:28;;;;;;;36.07;7.50;;;9.20;99.90;;;;;;5089489;28;20645;-96
2022/02/22 10:55:02;;;;;;;48.87;8.57;;;9.10;99.90;;;;;;5107756;28;20230;-93
2022/02/22 10:57:28;;;;;;;31.83;8.27;;;9.10;99.90;;;;;;5115390;28;20168;-93
2022/02/22 10:59:54;;;;;;;40.17;7.23;;;9.20;99.90;;;;;;5115244;28;20201;-95
2022/02/22 11:02:20;;;;;;;42.53;8.10;;;9.30;99.90;;;;;;5108414;28;20230;-96
2022/02/22 11:04:45;;;;;;;30.33;6.70;;;9.30;99.90;;;;;;5087839;28;20226;-96
2022/02/22 11:07:17;;;;;;;26.43;6.90;;;9.30;99.90;;;;;;5084682;28;20194;-96
2022/02/22 11:09:46;;;;;;;37.77;7.57;;;9.30;99.90;;;;;;5084414;28;20200;-96
2022/02/22 11:12:23;;;;;;;31.63;6.87;;;9.40;99.90;;;;;;5085523;28;20167;-96
2022/02/22 11:14:49;;;;;;;30.73;7.63;;;9.40;99.90;;;;;;5083556;28;20155;-96
2022/02/22 11:17:23;;;;;;;25.97;6.20;;;9.40;99.90;;;;;;5082157;28;20226;-96
2022/02/22 11:19:51;;;;;;;24.57;7.83;;;9.30;99.90;;;;;;5100107;28;20498;-96
2022/02/22 11:22:24;;;;;;;31.77;7.33;;;9.40;99.90;;;;;;5083515;28;20195;-95
2022/02/22 11:24:55;;;;;;;22.40;6.73;;;9.40;99.90;;;;;;5083466;28;20245;-94
2022/02/22 11:27:32;;;;;;;23.73;7.30;;;9.20;99.90;;;;;;5081300;28;20179;-96
2022/02/22 11:30:04;;;;;;;23.43;6.57;;;9.40;99.90;;;;;;5081309;28;20178;-96
2022/02/22 11:32:30;;;;;;;23.13;7.47;;;9.50;99.90;;;;;;5078446;28;20200;-96
2022/02/22 11:34:56;;;;;;;28.23;8.00;;;9.60;99.90;;;;;;5079272;28;20183;-96
2022/02/22 11:37:32;;;;;;;25.70;6.80;;;9.50;99.90;;;;;;5078654;28;20269;-96
2022/02/22 11:39:59;;;;;;;21.80;6.70;;;9.60;99.90;;;;;;5081083;28;20171;-96
2022/02/22 11:42:28;;;;;;;19.90;6.67;;;9.60;99.90;;;;;;5081838;28;20182;-96
2022/02/22 11:45:12;;;;;;;22.07;6.40;;;9.50;99.90;;;;;;5063142;28;20276;-95
2022/02/22 11:47:39;;;;;;;25.03;7.00;;;9.70;99.90;;;;;;5080316;28;20167;-96
2022/02/22 11:50:17;;;;;;;30.63;8.10;;;9.70;99.90;;;;;;5084407;28;20527;-96
2022/02/22 11:52:50;;;;;;;25.43;7.33;;;9.70;99.90;;;;;;5085244;28;20194;-96
2022/02/22 11:55:19;;;;;;;32.33;8.30;;;9.60;99.90;;;;;;5083494;28;20238;-96
2022/02/22 11:57:55;;;;;;;26.47;7.03;;;9.60;99.90;;;;;;5083837;28;20205;-96
2022/02/22 12:00:37;;;;;;;27.83;7.07;;;9.60;99.90;;;;;;5084813;28;20246;-96
2022/02/22 12:03:11;;;;;;;30.17;9.00;;;9.60;99.90;;;;;;5079567;28;20186;-96
2022/02/22 12:05:39;;;;;;;34.53;8.33;;;9.70;99.90;;;;;;5079533;28;20211;-96
2022/02/22 12:08:07;;;;;;;30.40;7.37;;;9.80;99.90;;;;;;5080782;28;20186;-96
2022/02/22 12:10:43;;;;;;;23.03;7.07;;;9.90;99.90;;;;;;5081134;28;20202;-96
2022/02/22 12:13:14;;;;;;;24.27;7.60;;;10.00;99.90;;;;;;5081695;28;20182;-96
2022/02/22 12:15:42;;;;;;;25.13;7.97;;;10.20;99.90;;;;;;5082654;28;20190;-96
2022/02/22 12:18:27;;;;;;;28.93;7.47;;;10.20;99.90;;;;;;5085234;28;20166;-95
2022/02/22 12:20:54;;;;;;;26.07;8.77;;;10.20;99.90;;;;;;5083555;28;20187;-96
2022/02/22 12:23:26;;;;;;;20.00;6.67;;;10.30;99.90;;;;;;5063552;28;20175;-96
2022/02/22 12:25:54;;;;;;;34.90;8.40;;;10.30;99.90;;;;;;5081430;28;20182;-96
2022/02/22 12:28:21;;;;;;;30.33;8.17;;;10.20;99.90;;;;;;5081945;28;20225;-96
2022/02/22 12:30:48;;;;;;;27.67;8.83;;;10.10;99.90;;;;;;5080931;28;20699;-96
2022/02/22 12:33:16;;;;;;;26.53;7.17;;;10.10;99.90;;;;;;5080049;28;20274;-95
2022/02/22 12:35:44;;;;;;;25.83;7.30;;;10.20;99.90;;;;;;5080952;28;20167;-95
2022/02/22 12:38:28;;;;;;;19.27;6.77;;;10.30;99.90;;;;;;5081666;28;20237;-96
2022/02/22 12:40:55;;;;;;;19.10;6.77;;;10.40;99.90;;;;;;5084443;28;20206;-95
2022/02/22 12:43:20;;;;;;;16.67;5.83;;;10.50;99.90;;;;;;5081272;28;20171;-95
2022/02/22 12:45:49;;;;;;;22.63;6.27;;;10.50;99.90;;;;;;5079999;28;20175;-96
2022/02/22 12:48:16;;;;;;;20.30;5.97;;;10.30;99.90;;;;;;5086965;28;20170;-96
2022/02/22 12:50:42;;;;;;;21.93;6.10;;;10.30;99.90;;;;;;5089148;28;20171;-96